Terminal Aerodrome Forecast
Issued by NWS

Home | Current Version | Previous Version | Text Only | Print | Product List | Glossary On
Versions: 1 2 3 4 5 6 7 8 9 10 11 12 13 14 15 16 17 18 19 20 21
000
FTUS44 KOUN 271136
TAFPNC
TAF
KPNC 271136Z 2712/2812 11013KT P6SM BKN018
     FM271600 17015G22KT P6SM SCT025
     FM280000 15012KT P6SM VCTS SCT040CB BKN250
     FM280300 15012KT P6SM FEW035 BKN150=

USA.gov is the U.S. government's official web portal to all federal, state and local government web resources and services.